createdAt,value
2019-05-07T00:01:05.988Z,5.20
2019-05-07T00:03:35.832Z,5.20
2019-05-07T00:06:05.961Z,5.20
2019-05-07T00:08:35.340Z,5.00
2019-05-07T00:11:05.113Z,5.00
2019-05-07T00:13:34.936Z,5.10
2019-05-07T00:16:04.487Z,5.10
2019-05-07T00:18:34.225Z,5.10
2019-05-07T00:21:03.667Z,5.10
2019-05-07T00:23:34.557Z,5.10
2019-05-07T00:26:08.651Z,5.10
2019-05-07T00:28:38.477Z,5.10
2019-05-07T00:31:07.865Z,5.00
2019-05-07T00:33:38.266Z,5.00
2019-05-07T00:36:36.495Z,5.00
2019-05-07T00:39:28.810Z,5.00
2019-05-07T00:42:05.168Z,4.90
2019-05-07T00:44:36.165Z,4.90
2019-05-07T00:47:05.564Z,4.80
2019-05-07T00:49:35.373Z,4.80
2019-05-07T00:52:12.231Z,4.80
2019-05-07T00:54:43.595Z,4.70
2019-05-07T00:57:12.924Z,4.70
2019-05-07T00:59:42.985Z,4.60
2019-05-07T01:02:13.710Z,4.60
2019-05-07T01:04:44.650Z,4.60
2019-05-07T01:07:17.038Z,4.60
2019-05-07T01:09:46.454Z,4.60
2019-05-07T01:12:17.252Z,4.50
2019-05-07T01:14:52.615Z,4.50
2019-05-07T01:17:22.879Z,4.50
2019-05-07T01:19:53.261Z,4.50
2019-05-07T01:22:25.046Z,4.50
2019-05-07T01:24:54.710Z,4.40
2019-05-07T01:27:24.158Z,4.40
2019-05-07T01:29:53.540Z,4.40
2019-05-07T01:32:33.015Z,4.40
2019-05-07T01:35:18.082Z,4.40
2019-05-07T01:37:47.649Z,4.40
2019-05-07T01:40:18.228Z,4.40
2019-05-07T01:42:47.644Z,4.30
2019-05-07T01:45:18.704Z,4.30
2019-05-07T01:47:48.958Z,4.30
2019-05-07T01:50:18.971Z,4.30
2019-05-07T01:52:48.370Z,4.30
2019-05-07T01:55:22.710Z,4.20
2019-05-07T01:57:53.110Z,4.20
2019-05-07T02:00:22.576Z,4.20
2019-05-07T02:02:57.452Z,4.20
2019-05-07T02:05:52.668Z,4.20
2019-05-07T02:08:42.322Z,4.10
2019-05-07T02:11:14.300Z,4.10
2019-05-07T02:13:43.730Z,4.10
2019-05-07T02:16:13.161Z,4.00
2019-05-07T02:18:42.793Z,4.10
2019-05-07T02:21:12.862Z,4.00
2019-05-07T02:23:42.725Z,4.00
2019-05-07T02:26:13.513Z,4.00
2019-05-07T02:28:43.084Z,4.00
2019-05-07T02:31:14.991Z,3.90
2019-05-07T02:33:43.862Z,3.90
2019-05-07T02:36:14.436Z,3.90
2019-05-07T02:38:53.103Z,3.80
2019-05-07T02:41:33.145Z,3.80
2019-05-07T02:44:04.125Z,3.70
2019-05-07T02:46:43.341Z,3.80
2019-05-07T02:49:24.129Z,3.80
2019-05-07T02:52:05.194Z,3.70
2019-05-07T02:54:53.898Z,3.60
2019-05-07T02:57:24.222Z,3.50
2019-05-07T02:59:54.589Z,3.50
2019-05-07T03:02:25.860Z,3.60
2019-05-07T03:04:55.379Z,3.60
2019-05-07T03:07:34.536Z,3.50
2019-05-07T03:10:06.448Z,3.50
2019-05-07T03:12:36.442Z,3.40
2019-05-07T03:15:06.644Z,3.40
2019-05-07T03:17:36.781Z,3.50
2019-05-07T03:20:13.591Z,3.40
2019-05-07T03:22:42.900Z,3.40
2019-05-07T03:25:23.274Z,3.40
2019-05-07T03:27:59.873Z,3.30
2019-05-07T03:30:48.141Z,3.40
2019-05-07T03:33:28.248Z,3.40
2019-05-07T03:36:07.329Z,3.40
2019-05-07T03:38:34.683Z,3.40
2019-05-07T03:41:05.561Z,3.40
2019-05-07T03:43:37.259Z,3.40
2019-05-07T03:46:14.097Z,3.30
2019-05-07T03:48:46.981Z,3.30
2019-05-07T03:51:39.850Z,3.30
2019-05-07T03:54:10.161Z,3.20
2019-05-07T03:56:43.561Z,3.20
2019-05-07T03:59:14.340Z,3.20
2019-05-07T04:01:43.641Z,3.20
2019-05-07T04:04:14.619Z,3.10
2019-05-07T04:06:44.690Z,3.20
2019-05-07T04:09:15.431Z,3.30
2019-05-07T04:11:47.435Z,3.30
2019-05-07T04:14:23.469Z,3.30
2019-05-07T04:17:04.722Z,3.30
2019-05-07T04:19:26.323Z,3.20
2019-05-07T04:21:58.812Z,3.30
2019-05-07T04:24:48.318Z,3.30
2019-05-07T04:27:26.277Z,3.30
2019-05-07T04:29:55.945Z,3.30
2019-05-07T04:32:33.379Z,3.30
2019-05-07T04:35:09.114Z,3.30
2019-05-07T04:37:39.321Z,3.40
2019-05-07T04:40:09.702Z,3.40
2019-05-07T04:42:39.035Z,3.40
2019-05-07T04:45:09.253Z,3.40
2019-05-07T04:47:44.282Z,3.50
2019-05-07T04:50:13.908Z,3.60
2019-05-07T04:52:43.909Z,3.60
2019-05-07T04:55:22.719Z,3.60
2019-05-07T04:57:53.359Z,3.70
2019-05-07T05:00:23.156Z,3.80
2019-05-07T05:03:17.861Z,3.80
2019-05-07T05:05:47.240Z,3.90
2019-05-07T05:08:18.456Z,3.90
2019-05-07T05:10:48.301Z,4.00
2019-05-07T05:13:18.182Z,4.10
2019-05-07T05:15:48.904Z,4.30
2019-05-07T05:18:18.583Z,4.30
2019-05-07T05:21:06.905Z,4.40
2019-05-07T05:23:53.901Z,4.40
2019-05-07T05:26:24.888Z,4.30
2019-05-07T05:28:58.888Z,4.20
2019-05-07T05:31:28.570Z,4.30
2019-05-07T05:33:57.967Z,4.40
2019-05-07T05:36:33.014Z,4.50
2019-05-07T05:39:07.076Z,4.60
2019-05-07T05:41:42.104Z,4.80
2019-05-07T05:44:22.630Z,4.80
2019-05-07T05:46:52.597Z,5.00
2019-05-07T05:49:22.978Z,5.10
2019-05-07T05:52:13.170Z,5.20
2019-05-07T05:54:58.913Z,5.30
2019-05-07T05:57:52.987Z,5.50
2019-05-07T06:00:43.377Z,5.80
2019-05-07T06:03:37.170Z,6.50
2019-05-07T06:09:15.353Z,9.90
2019-05-07T06:12:12.686Z,11.50
2019-05-07T06:15:06.446Z,12.20
2019-05-07T06:17:58.293Z,13.70
2019-05-07T06:20:54.768Z,14.50
2019-05-07T06:23:42.654Z,15.50
2019-05-07T06:26:14.824Z,17.20
2019-05-07T06:28:46.319Z,18.00
2019-05-07T06:31:17.812Z,19.50
2019-05-07T06:33:52.318Z,20.90
2019-05-07T06:36:26.580Z,21.90
2019-05-07T06:39:18.239Z,22.50
2019-05-07T06:42:29.389Z,22.90
2019-05-07T06:45:07.149Z,23.20
2019-05-07T06:47:36.758Z,23.60
2019-05-07T06:50:07.032Z,23.80
2019-05-07T06:52:36.743Z,23.80
2019-05-07T06:55:08.946Z,24.30
2019-05-07T06:57:42.568Z,25.00
2019-05-07T07:00:36.471Z,25.60
2019-05-07T07:03:23.661Z,26.10
2019-05-07T07:05:58.781Z,26.30
2019-05-07T07:08:35.612Z,26.30
2019-05-07T07:11:24.934Z,25.40
2019-05-07T07:13:54.618Z,25.60
2019-05-07T07:16:27.901Z,25.40
2019-05-07T07:19:03.793Z,25.80
2019-05-07T07:21:42.032Z,26.20
2019-05-07T07:24:12.714Z,26.60
2019-05-07T07:26:42.325Z,26.60
2019-05-07T07:29:13.091Z,26.70
2019-05-07T07:31:52.844Z,27.00
2019-05-07T07:34:23.808Z,27.40
2019-05-07T07:37:06.029Z,27.40
2019-05-07T07:39:32.848Z,28.00
2019-05-07T07:42:04.464Z,28.20
2019-05-07T07:44:34.888Z,28.30
2019-05-07T07:47:04.643Z,28.80
2019-05-07T07:49:34.556Z,29.30
2019-05-07T07:52:05.836Z,30.50
2019-05-07T07:54:35.224Z,30.20
2019-05-07T07:57:12.700Z,30.60
2019-05-07T08:00:02.595Z,30.80
2019-05-07T08:02:54.385Z,29.50
2019-05-07T08:05:25.785Z,30.70
2019-05-07T08:07:55.597Z,31.70
2019-05-07T08:10:25.484Z,31.60
2019-05-07T08:12:55.226Z,31.10
2019-05-07T08:15:24.960Z,30.10
2019-05-07T08:17:55.121Z,29.90
2019-05-07T08:20:25.025Z,28.60
2019-05-07T08:22:54.781Z,27.80
2019-05-07T08:25:43.275Z,28.30
2019-05-07T08:28:12.670Z,28.30
2019-05-07T08:30:46.409Z,27.30
2019-05-07T08:33:28.817Z,25.90
2019-05-07T08:36:14.917Z,23.70
2019-05-07T08:38:53.114Z,22.50
2019-05-07T08:41:23.324Z,21.40
2019-05-07T08:44:08.309Z,21.50
2019-05-07T08:46:42.281Z,23.00
2019-05-07T08:49:12.180Z,24.40
2019-05-07T08:51:42.603Z,26.50
2019-05-07T08:54:19.121Z,27.60
2019-05-07T08:56:54.506Z,28.20
2019-05-07T08:59:31.884Z,28.10
2019-05-07T09:02:03.126Z,29.30
2019-05-07T09:04:33.245Z,29.40
2019-05-07T09:07:04.201Z,30.20
2019-05-07T09:12:03.237Z,31.60
2019-05-07T09:14:32.968Z,33.30
2019-05-07T09:17:04.488Z,34.20
2019-05-07T09:19:47.261Z,34.50
2019-05-07T09:22:05.542Z,33.70
2019-05-07T09:24:35.878Z,33.00
2019-05-07T09:27:13.264Z,32.80
2019-05-07T09:30:02.796Z,33.10
2019-05-07T09:33:09.514Z,32.10
2019-05-07T09:35:48.056Z,31.30
2019-05-07T09:38:22.298Z,31.60
2019-05-07T09:40:52.460Z,30.80
2019-05-07T09:43:22.446Z,29.30
2019-05-07T09:45:52.434Z,27.50
2019-05-07T09:48:22.254Z,26.60
2019-05-07T09:50:53.021Z,26.10
2019-05-07T09:53:26.937Z,25.80
2019-05-07T09:55:56.285Z,24.40
2019-05-07T09:58:35.665Z,22.80
2019-05-07T10:00:57.479Z,22.80
2019-05-07T10:03:27.501Z,22.40
2019-05-07T10:05:57.893Z,22.00
2019-05-07T10:08:27.317Z,21.20
2019-05-07T10:10:56.709Z,20.20
2019-05-07T10:13:42.405Z,19.60
2019-05-07T10:16:12.806Z,18.90
2019-05-07T10:18:42.712Z,18.00
2019-05-07T10:21:12.797Z,17.60
2019-05-07T10:23:46.516Z,17.60
2019-05-07T10:26:22.560Z,17.20
2019-05-07T10:28:52.899Z,17.10
2019-05-07T10:31:22.433Z,17.20
2019-05-07T10:33:52.533Z,17.20
2019-05-07T10:36:24.339Z,17.30
2019-05-07T10:38:53.748Z,17.30
2019-05-07T10:41:24.155Z,17.40
2019-05-07T10:43:53.580Z,17.60
2019-05-07T10:46:43.634Z,17.20
2019-05-07T10:49:25.989Z,17.10
2019-05-07T10:51:55.372Z,17.10
2019-05-07T10:54:24.767Z,17.40
2019-05-07T10:56:56.825Z,17.70
2019-05-07T10:59:26.269Z,17.90
2019-05-07T11:02:21.962Z,18.10
2019-05-07T11:04:53.189Z,18.00
2019-05-07T11:07:29.465Z,17.60
2019-05-07T11:10:06.028Z,17.70
2019-05-07T11:12:42.473Z,17.90
2019-05-07T11:15:16.854Z,17.70
2019-05-07T11:17:55.152Z,17.30
2019-05-07T11:20:28.207Z,17.20
2019-05-07T11:22:57.594Z,17.10
2019-05-07T11:25:32.931Z,17.00
2019-05-07T11:28:04.471Z,16.80
2019-05-07T11:30:36.344Z,16.60
2019-05-07T11:33:06.560Z,16.60
2019-05-07T11:35:37.437Z,16.10
2019-05-07T11:38:20.700Z,16.30
2019-05-07T11:40:45.622Z,16.20
2019-05-07T11:43:53.890Z,16.20
2019-05-07T11:46:41.952Z,16.30
2019-05-07T11:49:22.737Z,16.50
2019-05-07T11:52:07.749Z,16.70
2019-05-07T11:54:42.060Z,16.70
2019-05-07T11:57:11.680Z,16.70
2019-05-07T11:59:41.822Z,16.40
2019-05-07T12:02:12.098Z,16.40
2019-05-07T12:04:45.602Z,16.40
2019-05-07T12:07:16.574Z,16.30
2019-05-07T12:09:48.912Z,16.30
2019-05-07T12:12:18.877Z,16.30
2019-05-07T12:14:48.681Z,16.30
2019-05-07T12:17:19.310Z,16.50
2019-05-07T12:19:49.618Z,16.40
2019-05-07T12:22:38.086Z,16.50
2019-05-07T12:25:12.122Z,16.40
2019-05-07T12:27:41.569Z,16.40
2019-05-07T12:30:14.806Z,16.50
2019-05-07T12:33:18.892Z,16.50
2019-05-07T12:35:52.340Z,16.50
2019-05-07T12:38:25.607Z,16.60
2019-05-07T12:40:54.948Z,16.70
2019-05-07T12:43:25.093Z,17.00
2019-05-07T12:45:56.045Z,17.00
2019-05-07T12:48:25.368Z,16.80
2019-05-07T12:50:54.781Z,16.90
2019-05-07T12:53:47.003Z,16.90
2019-05-07T12:56:18.129Z,17.10
2019-05-07T12:58:53.955Z,17.20
2019-05-07T13:01:33.400Z,17.30
2019-05-07T13:04:12.312Z,17.20
2019-05-07T13:06:54.537Z,17.10
2019-05-07T13:09:24.217Z,17.20
2019-05-07T13:11:54.877Z,17.20
2019-05-07T13:14:29.181Z,17.20
2019-05-07T13:16:59.178Z,17.30
2019-05-07T13:19:28.681Z,17.30
2019-05-07T13:21:59.366Z,17.30
2019-05-07T13:24:29.261Z,17.20
2019-05-07T13:26:59.623Z,17.00
2019-05-07T13:29:29.013Z,16.90
2019-05-07T13:32:02.928Z,17.10
2019-05-07T13:34:34.177Z,17.00
2019-05-07T13:37:09.715Z,17.00
2019-05-07T13:39:43.740Z,16.80
2019-05-07T13:42:46.989Z,16.60
2019-05-07T13:45:38.044Z,16.40
2019-05-07T13:48:17.815Z,16.40
2019-05-07T13:50:48.721Z,16.50
2019-05-07T13:53:19.240Z,16.70
2019-05-07T13:55:49.116Z,16.80
2019-05-07T13:58:19.823Z,17.00
2019-05-07T14:01:08.173Z,17.10
2019-05-07T14:03:38.616Z,17.10
2019-05-07T14:06:07.995Z,16.90
2019-05-07T14:08:42.330Z,16.70
2019-05-07T14:11:13.918Z,16.60
2019-05-07T14:13:46.877Z,16.70
2019-05-07T14:16:22.214Z,16.70
2019-05-07T14:18:53.413Z,16.50
2019-05-07T14:21:22.839Z,16.50
2019-05-07T14:23:54.105Z,16.40
2019-05-07T14:26:25.468Z,16.40
2019-05-07T14:28:55.228Z,16.60
2019-05-07T14:31:25.240Z,16.80
2019-05-07T14:34:12.378Z,17.10
2019-05-07T14:36:54.369Z,17.20
2019-05-07T14:39:29.707Z,17.10
2019-05-07T14:42:06.423Z,16.90
2019-05-07T14:44:49.093Z,16.80
2019-05-07T14:47:22.500Z,17.00
2019-05-07T14:49:52.959Z,17.30
2019-05-07T14:52:35.581Z,17.60
2019-05-07T14:55:08.626Z,17.50
2019-05-07T14:57:42.082Z,17.80
2019-05-07T15:00:13.444Z,17.90
2019-05-07T15:02:42.877Z,18.30
2019-05-07T15:05:14.329Z,18.40
2019-05-07T15:07:44.224Z,17.80
2019-05-07T15:10:15.452Z,17.70
2019-05-07T15:12:46.381Z,17.60
2019-05-07T15:15:16.480Z,17.50
2019-05-07T15:17:58.438Z,17.20
2019-05-07T15:20:27.884Z,17.00
2019-05-07T15:23:06.382Z,16.90
2019-05-07T15:25:36.209Z,16.70
2019-05-07T15:28:06.601Z,16.60
2019-05-07T15:30:52.217Z,16.50
2019-05-07T15:33:21.850Z,16.60
2019-05-07T15:35:53.247Z,16.50
2019-05-07T15:38:26.732Z,16.50
2019-05-07T15:40:56.128Z,16.60
2019-05-07T15:43:27.269Z,16.60
2019-05-07T15:45:57.322Z,16.60
2019-05-07T15:48:26.724Z,16.60
2019-05-07T15:51:01.940Z,16.60
2019-05-07T15:53:47.569Z,16.70
2019-05-07T15:56:18.217Z,16.80
2019-05-07T15:58:47.566Z,16.70
2019-05-07T16:01:17.573Z,16.70
2019-05-07T16:03:46.989Z,16.50
2019-05-07T16:06:17.233Z,16.50
2019-05-07T16:08:56.894Z,16.40
2019-05-07T16:11:31.832Z,16.20
2019-05-07T16:14:26.744Z,16.30
2019-05-07T16:17:04.997Z,16.20
2019-05-07T16:19:36.265Z,16.00
2019-05-07T16:22:10.208Z,16.00
2019-05-07T16:24:39.604Z,16.20
2019-05-07T16:27:09.007Z,16.30
2019-05-07T16:29:38.473Z,16.40
2019-05-07T16:32:08.452Z,16.30
2019-05-07T16:34:38.036Z,16.20
2019-05-07T16:37:13.707Z,16.20
2019-05-07T16:39:43.201Z,16.00
2019-05-07T16:42:17.723Z,16.00
2019-05-07T16:44:52.840Z,16.00
2019-05-07T16:47:22.915Z,16.00
2019-05-07T16:49:54.736Z,16.00
2019-05-07T16:52:24.508Z,15.90
2019-05-07T16:54:55.305Z,15.80
2019-05-07T16:57:44.352Z,15.80
2019-05-07T17:00:31.732Z,15.70
2019-05-07T17:03:03.144Z,15.60
2019-05-07T17:05:34.208Z,15.20
2019-05-07T17:08:22.440Z,15.10
2019-05-07T17:10:53.095Z,15.00
2019-05-07T17:13:23.884Z,15.00
2019-05-07T17:16:03.023Z,15.00
2019-05-07T17:18:32.759Z,14.90
2019-05-07T17:21:02.357Z,14.90
2019-05-07T17:23:43.282Z,14.90
2019-05-07T17:26:04.999Z,14.80
2019-05-07T17:28:34.533Z,14.70
2019-05-07T17:31:04.838Z,14.70
2019-05-07T17:33:34.429Z,14.60
2019-05-07T17:36:03.828Z,14.60
2019-05-07T17:38:33.836Z,14.50
2019-05-07T17:41:13.657Z,14.50
2019-05-07T17:43:35.224Z,14.40
2019-05-07T17:46:04.806Z,14.30
2019-05-07T17:48:34.473Z,14.20
2019-05-07T17:51:25.663Z,14.10
2019-05-07T17:53:59.894Z,14.00
2019-05-07T17:56:27.792Z,14.00
2019-05-07T17:58:57.466Z,13.90
2019-05-07T18:01:36.560Z,13.80
2019-05-07T18:04:05.979Z,13.70
2019-05-07T18:06:35.962Z,13.50
2019-05-07T18:09:06.842Z,13.50
2019-05-07T18:11:36.564Z,13.40
2019-05-07T18:14:07.503Z,13.20
2019-05-07T18:17:02.105Z,13.20
2019-05-07T18:19:33.251Z,13.10
2019-05-07T18:22:02.774Z,13.00
2019-05-07T18:24:33.711Z,13.00
2019-05-07T18:27:04.391Z,12.90
2019-05-07T18:29:35.273Z,12.90
2019-05-07T18:32:06.871Z,12.70
2019-05-07T18:34:36.418Z,12.60
2019-05-07T18:37:08.661Z,12.60
2019-05-07T18:39:38.336Z,12.50
2019-05-07T18:42:08.677Z,12.40
2019-05-07T18:44:38.499Z,12.30
2019-05-07T18:47:07.829Z,12.30
2019-05-07T18:49:37.708Z,12.20
2019-05-07T18:52:08.396Z,12.20
2019-05-07T18:54:38.709Z,12.10
2019-05-07T18:57:10.959Z,11.90
2019-05-07T18:59:46.899Z,11.90
2019-05-07T19:02:17.216Z,11.80
2019-05-07T19:04:46.721Z,11.60
2019-05-07T19:07:16.861Z,11.60
2019-05-07T19:09:47.852Z,11.50
2019-05-07T19:12:22.324Z,11.50
2019-05-07T19:14:51.978Z,11.40
2019-05-07T19:17:22.224Z,11.30
2019-05-07T19:19:54.341Z,11.30
2019-05-07T19:22:23.740Z,11.20
2019-05-07T19:24:53.276Z,11.10
2019-05-07T19:27:22.872Z,11.00
2019-05-07T19:29:59.610Z,11.00
2019-05-07T19:32:29.447Z,10.90
2019-05-07T19:35:02.915Z,10.90
2019-05-07T19:37:35.476Z,10.80
2019-05-07T19:40:05.577Z,10.70
2019-05-07T19:42:35.843Z,10.60
2019-05-07T19:45:06.921Z,10.50
2019-05-07T19:47:36.851Z,10.40
2019-05-07T19:50:07.651Z,10.40
2019-05-07T19:52:37.173Z,10.40
2019-05-07T19:55:07.213Z,10.30
2019-05-07T19:57:43.305Z,10.20
2019-05-07T20:00:13.502Z,10.10
2019-05-07T20:02:46.047Z,10.10
2019-05-07T20:05:16.859Z,10.00
2019-05-07T20:07:46.341Z,9.90
2019-05-07T20:10:22.701Z,9.90
2019-05-07T20:12:52.837Z,9.80
2019-05-07T20:15:22.481Z,9.70
2019-05-07T20:17:52.642Z,9.70
2019-05-07T20:20:23.685Z,9.70
2019-05-07T20:22:53.258Z,9.70
2019-05-07T20:25:27.868Z,9.70
2019-05-07T20:27:57.428Z,9.60
2019-05-07T20:30:26.949Z,9.60
2019-05-07T20:32:57.584Z,9.50
2019-05-07T20:35:29.085Z,9.50
2019-05-07T20:37:58.477Z,9.40
2019-05-07T20:40:27.877Z,9.40
2019-05-07T20:42:57.309Z,9.30
2019-05-07T20:45:27.656Z,9.20
2019-05-07T20:47:58.278Z,9.10
2019-05-07T20:50:27.922Z,9.10
2019-05-07T20:52:57.911Z,9.00
2019-05-07T20:55:34.313Z,9.00
2019-05-07T20:58:04.346Z,8.90
2019-05-07T21:00:34.576Z,8.90
2019-05-07T21:03:23.401Z,8.80
2019-05-07T21:05:53.579Z,8.70
2019-05-07T21:08:23.216Z,8.70
2019-05-07T21:10:54.312Z,8.70
2019-05-07T21:13:30.954Z,8.60
2019-05-07T21:15:56.216Z,8.60
2019-05-07T21:18:26.564Z,8.60
2019-05-07T21:20:56.377Z,8.50
2019-05-07T21:23:32.413Z,8.50
2019-05-07T21:26:03.135Z,8.50
2019-05-07T21:28:34.385Z,8.50
2019-05-07T21:31:04.146Z,8.50
2019-05-07T21:33:33.548Z,8.50
2019-05-07T21:36:11.878Z,8.40
2019-05-07T21:38:42.706Z,8.30
2019-05-07T21:41:14.064Z,8.30
2019-05-07T21:43:46.203Z,8.20
2019-05-07T21:46:17.766Z,8.30
2019-05-07T21:48:47.130Z,8.30
2019-05-07T21:51:22.675Z,8.20
2019-05-07T21:54:04.268Z,8.20
2019-05-07T21:56:56.374Z,8.20
2019-05-07T21:59:27.144Z,8.10
2019-05-07T22:02:02.233Z,8.00
2019-05-07T22:04:33.030Z,8.00
2019-05-07T22:07:02.930Z,8.00
2019-05-07T22:09:33.082Z,8.00
2019-05-07T22:12:04.320Z,8.00
2019-05-07T22:14:37.121Z,8.00
2019-05-07T22:17:06.513Z,7.90
2019-05-07T22:19:38.180Z,7.80
2019-05-07T22:22:12.342Z,7.80
2019-05-07T22:24:42.663Z,7.70
2019-05-07T22:27:14.181Z,7.70
2019-05-07T22:29:43.495Z,7.70
2019-05-07T22:32:24.942Z,7.70
2019-05-07T22:35:22.760Z,7.70
2019-05-07T22:37:54.034Z,7.70
2019-05-07T22:40:23.360Z,7.70
2019-05-07T22:42:52.781Z,7.70
2019-05-07T22:45:23.576Z,7.70
2019-05-07T22:47:53.006Z,7.60
2019-05-07T22:50:22.682Z,7.50
2019-05-07T22:52:54.340Z,7.60
2019-05-07T22:55:24.458Z,7.60
2019-05-07T22:58:08.642Z,7.60
2019-05-07T23:00:48.310Z,7.50
2019-05-07T23:03:22.848Z,7.40
2019-05-07T23:05:54.240Z,7.40
2019-05-07T23:08:24.722Z,7.50
2019-05-07T23:10:54.921Z,7.50
2019-05-07T23:13:25.697Z,7.40
2019-05-07T23:15:55.385Z,7.30
2019-05-07T23:18:26.964Z,7.30
2019-05-07T23:20:59.685Z,7.30
2019-05-07T23:23:32.552Z,7.20
2019-05-07T23:26:06.349Z,7.20
2019-05-07T23:28:36.265Z,7.20
2019-05-07T23:31:06.043Z,7.10
2019-05-07T23:33:35.913Z,7.10
2019-05-07T23:36:05.874Z,7.10
2019-05-07T23:38:38.943Z,7.10
2019-05-07T23:41:36.263Z,7.10
2019-05-07T23:44:15.068Z,7.00
2019-05-07T23:46:46.859Z,7.00
2019-05-07T23:49:23.191Z,6.90
2019-05-07T23:51:53.204Z,6.90
2019-05-07T23:54:23.201Z,7.00
2019-05-07T23:57:06.010Z,7.00
2019-05-07T23:59:27.064Z,7.00
